Time,TemperatureF,DewpointF,PressureIn,WindDirection,WindDirectionDegrees,WindSpeedMPH,WindSpeedGustMPH,Humidity,HourlyPrecipIn,Conditions,Clouds,dailyrainin,SoftwareType,DateUTC
2013-02-04 10:20:00,48.2,34.1,29.84,North,0,0.0,0.0,58,0.00,,,0.00,WUHU21623XXSP,2013-02-04 16:20:00,
2013-02-04 10:25:00,47.8,33.8,29.84,North,0,0.0,0.0,58,0.00,,,0.00,WUHU21623XXSP,2013-02-04 16:25:00,
2013-02-04 10:30:00,47.8,33.8,29.84,North,0,0.0,0.0,58,0.00,,,0.00,WUHU21623XXSP,2013-02-04 16:30:00,
2013-02-04 10:35:00,47.8,33.3,29.85,North,0,0.0,0.0,57,0.00,,,0.00,WUHU21623XXSP,2013-02-04 16:35:00,
2013-02-04 10:40:00,47.7,33.1,29.85,North,0,0.0,0.0,57,0.00,,,0.00,WUHU21623XXSP,2013-02-04 16:40:00,
2013-02-04 10:45:00,47.5,33.0,29.86,North,0,0.0,0.0,57,0.00,,,0.00,WUHU21623XXSP,2013-02-04 16:45:00,
2013-02-04 10:50:00,47.5,33.0,29.85,North,0,0.0,0.0,57,0.00,,,0.00,WUHU21623XXSP,2013-02-04 16:50:00,
2013-02-04 10:55:00,47.5,33.0,29.86,North,0,0.0,0.0,57,0.00,,,0.00,WUHU21623XXSP,2013-02-04 16:55:00,
2013-02-04 11:00:00,47.7,33.1,29.86,North,0,0.0,0.0,57,0.00,,,0.00,WUHU21623XXSP,2013-02-04 17:00:00,
2013-02-04 11:05:00,47.8,33.3,29.86,North,0,0.0,0.0,57,0.00,,,0.00,WUHU21623XXSP,2013-02-04 17:05:00,
2013-02-04 11:10:00,48.0,33.5,29.86,North,0,0.0,0.0,57,0.00,,,0.00,WUHU21623XXSP,2013-02-04 17:10:00,
2013-02-04 11:15:00,48.0,33.5,29.86,North,0,0.0,0.0,57,0.00,,,0.00,WUHU21623XXSP,2013-02-04 17:15:00,
2013-02-04 11:20:00,48.0,33.5,29.86,North,0,0.0,0.0,57,0.00,,,0.00,WUHU21623XXSP,2013-02-04 17:20:00,
2013-02-04 11:25:00,48.4,33.8,29.86,North,0,0.0,0.0,57,0.00,,,0.00,WUHU21623XXSP,2013-02-04 17:25:00,
2013-02-04 11:30:00,48.6,34.0,29.86,North,0,0.0,0.0,57,0.00,,,0.00,WUHU21623XXSP,2013-02-04 17:30:00,
2013-02-04 11:35:00,48.6,33.5,29.87,North,0,0.0,0.0,56,0.00,,,0.00,WUHU21623XXSP,2013-02-04 17:35:00,
2013-02-04 11:40:00,48.4,32.9,29.87,North,0,0.0,0.0,55,0.00,,,0.00,WUHU21623XXSP,2013-02-04 17:40:00,
2013-02-04 11:45:00,48.4,33.4,29.87,North,0,0.0,0.0,56,0.00,,,0.00,WUHU21623XXSP,2013-02-04 17:45:00,
2013-02-04 11:50:00,48.2,33.2,29.86,North,0,0.0,0.0,56,0.00,,,0.00,WUHU21623XXSP,2013-02-04 17:50:00,
2013-02-04 11:55:00,48.2,33.7,29.86,North,0,0.0,0.0,57,0.00,,,0.00,WUHU21623XXSP,2013-02-04 17:55:00,
2013-02-04 12:00:00,48.4,33.8,29.87,North,0,0.0,0.0,57,0.00,,,0.00,WUHU21623XXSP,2013-02-04 18:00:00,
2013-02-04 12:05:00,48.4,33.4,29.87,North,0,0.0,0.0,56,0.00,,,0.00,WUHU21623XXSP,2013-02-04 18:05:00,
2013-02-04 12:10:00,48.2,33.2,29.87,North,0,0.0,0.0,56,0.00,,,0.00,WUHU21623XXSP,2013-02-04 18:10:00,
2013-02-04 12:15:00,48.2,33.2,29.87,North,0,0.0,0.0,56,0.00,,,0.00,WUHU21623XXSP,2013-02-04 18:15:00,
2013-02-04 12:20:00,48.2,33.2,29.87,North,0,0.0,0.0,56,0.00,,,0.00,WUHU21623XXSP,2013-02-04 18:20:00,
2013-02-04 12:25:00,48.0,33.0,29.87,North,0,0.0,0.0,56,0.00,,,0.00,WUHU21623XXSP,2013-02-04 18:25:00,
2013-02-04 12:30:00,47.8,32.8,29.87,North,0,0.0,0.0,56,0.00,,,0.00,WUHU21623XXSP,2013-02-04 18:30:00,
2013-02-04 12:35:00,47.5,32.5,29.88,North,0,0.0,0.0,56,0.00,,,0.00,WUHU21623XXSP,2013-02-04 18:35:00,
2013-02-04 12:40:00,47.5,32.5,29.88,North,0,0.0,0.0,56,0.00,,,0.00,WUHU21623XXSP,2013-02-04 18:40:00,
2013-02-04 12:45:00,47.3,32.3,29.88,North,0,0.0,0.0,56,0.00,,,0.00,WUHU21623XXSP,2013-02-04 18:45:00,
2013-02-04 12:50:00,47.3,32.8,29.89,North,0,0.0,0.0,57,0.00,,,0.00,WUHU21623XXSP,2013-02-04 18:50:00,
2013-02-04 12:55:00,47.1,32.6,29.88,North,0,0.0,0.0,57,0.00,,,0.00,WUHU21623XXSP,2013-02-04 18:55:00,
2013-02-04 13:00:00,46.9,32.9,29.88,North,0,0.0,0.0,58,0.00,,,0.00,WUHU21623XXSP,2013-02-04 19:00:00,
2013-02-04 13:05:00,46.9,32.4,29.88,North,0,0.0,0.0,57,0.00,,,0.00,WUHU21623XXSP,2013-02-04 19:05:00,
2013-02-04 13:10:00,46.8,32.3,29.88,North,0,0.0,0.0,58,0.00,,,0.00,WUHU21623XXSP,2013-02-04 19:10:00,
2013-02-04 13:15:00,46.6,32.5,29.88,North,0,0.0,0.0,58,0.00,,,0.00,WUHU21623XXSP,2013-02-04 19:15:00,
2013-02-04 13:20:00,46.6,32.5,29.88,North,0,0.0,0.0,58,0.00,,,0.00,WUHU21623XXSP,2013-02-04 19:20:00,
2013-02-04 13:25:00,46.6,33.0,29.88,North,0,0.0,0.0,59,0.00,,,0.00,WUHU21623XXSP,2013-02-04 19:25:00,
2013-02-04 13:30:00,46.6,33.0,29.88,North,0,0.0,0.0,59,0.00,,,0.00,WUHU21623XXSP,2013-02-04 19:30:00,
2013-02-04 13:35:00,46.6,33.0,29.88,North,0,0.0,0.0,60,0.00,,,0.00,WUHU21623XXSP,2013-02-04 19:35:00,
2013-02-04 13:40:00,46.6,33.4,29.89,North,0,0.0,0.0,60,0.00,,,0.00,WUHU21623XXSP,2013-02-04 19:40:00,
2013-02-04 13:45:00,46.2,33.3,29.89,North,0,0.0,0.0,60,0.00,,,0.00,WUHU21623XXSP,2013-02-04 19:45:00,
2013-02-04 13:50:00,46.0,32.9,29.89,North,0,0.0,0.0,60,0.00,,,0.00,WUHU21623XXSP,2013-02-04 19:50:00,
2013-02-04 13:55:00,46.0,32.9,29.89,North,0,0.0,0.0,60,0.00,,,0.00,WUHU21623XXSP,2013-02-04 19:55:00,
2013-02-04 14:00:00,45.7,32.6,29.89,North,0,0.0,0.0,60,0.00,,,0.00,WUHU21623XXSP,2013-02-04 20:00:00,
2013-02-04 14:05:00,45.5,32.5,29.89,North,0,0.0,0.0,60,0.00,,,0.00,WUHU21623XXSP,2013-02-04 20:05:00,
2013-02-04 14:10:00,45.3,32.3,29.89,North,0,0.0,0.0,60,0.00,,,0.00,WUHU21623XXSP,2013-02-04 20:10:00,
2013-02-04 14:15:00,45.0,32.0,29.89,North,0,0.0,0.0,61,0.00,,,0.00,WUHU21623XXSP,2013-02-04 20:15:00,
2013-02-04 14:20:00,45.0,32.3,29.89,North,0,0.0,0.0,61,0.00,,,0.00,WUHU21623XXSP,2013-02-04 20:20:00,
2013-02-04 14:25:00,45.0,32.3,29.89,North,0,0.0,0.0,61,0.00,,,0.00,WUHU21623XXSP,2013-02-04 20:25:00,
2013-02-04 14:30:00,44.4,31.5,29.89,North,0,0.0,0.0,60,0.00,,,0.00,WUHU21623XXSP,2013-02-04 20:30:00,
2013-02-04 14:35:00,43.9,30.9,29.89,North,0,0.0,0.0,60,0.00,,,0.00,WUHU21623XXSP,2013-02-04 20:35:00,
2013-02-04 14:40:00,43.5,30.6,29.89,North,0,0.0,0.0,60,0.00,,,0.00,WUHU21623XXSP,2013-02-04 20:40:00,
2013-02-04 14:45:00,43.0,30.2,29.89,North,0,0.0,0.0,60,0.00,,,0.00,WUHU21623XXSP,2013-02-04 20:45:00,
2013-02-04 14:50:00,42.6,30.1,29.89,North,0,0.0,0.0,61,0.00,,,0.00,WUHU21623XXSP,2013-02-04 20:50:00,
2013-02-04 14:55:00,42.3,29.9,29.90,North,0,0.0,0.0,62,0.00,,,0.00,WUHU21623XXSP,2013-02-04 20:55:00,
2013-02-04 15:00:00,41.9,29.8,29.90,North,0,0.0,0.0,62,0.00,,,0.00,WUHU21623XXSP,2013-02-04 21:00:00,
2013-02-04 15:05:00,41.9,29.8,29.90,North,0,0.0,0.0,62,0.00,,,0.00,WUHU21623XXSP,2013-02-04 21:05:00,
2013-02-04 15:10:00,41.7,29.6,29.90,North,0,0.0,0.0,62,0.00,,,0.00,WUHU21623XXSP,2013-02-04 21:10:00,
2013-02-04 15:15:00,41.5,29.5,29.90,North,0,0.0,0.0,62,0.00,,,0.00,WUHU21623XXSP,2013-02-04 21:15:00,
2013-02-04 15:20:00,41.5,29.8,29.90,North,0,0.0,0.0,63,0.00,,,0.00,WUHU21623XXSP,2013-02-04 21:20:00,
2013-02-04 15:25:00,41.4,29.3,29.90,North,0,0.0,0.0,62,0.00,,,0.00,WUHU21623XXSP,2013-02-04 21:25:00,
2013-02-04 15:30:00,40.8,29.2,29.91,North,0,0.0,0.0,63,0.00,,,0.00,WUHU21623XXSP,2013-02-04 21:30:00,
2013-02-04 15:35:00,40.6,29.0,29.91,North,0,0.0,0.0,63,0.00,,,0.00,WUHU21623XXSP,2013-02-04 21:35:00,
2013-02-04 15:40:00,40.5,29.2,29.91,North,0,0.0,0.0,64,0.00,,,0.00,WUHU21623XXSP,2013-02-04 21:40:00,
2013-02-04 15:45:00,40.3,29.0,29.91,North,0,0.0,0.0,64,0.00,,,0.00,WUHU21623XXSP,2013-02-04 21:45:00,
2013-02-04 15:50:00,40.1,28.8,29.91,North,0,0.0,0.0,64,0.00,,,0.00,WUHU21623XXSP,2013-02-04 21:50:00,
2013-02-04 15:55:00,39.9,28.7,29.92,North,0,0.0,0.0,64,0.00,,,0.00,WUHU21623XXSP,2013-02-04 21:55:00,
2013-02-04 16:00:00,39.7,28.5,29.92,North,0,0.0,0.0,64,0.00,,,0.00,WUHU21623XXSP,2013-02-04 22:00:00,
2013-02-04 16:05:00,39.4,28.3,29.92,North,0,0.0,0.0,65,0.00,,,0.00,WUHU21623XXSP,2013-02-04 22:05:00,
2013-02-04 16:10:00,39.4,28.5,29.92,North,0,0.0,0.0,65,0.00,,,0.00,WUHU21623XXSP,2013-02-04 22:10:00,
2013-02-04 16:15:00,38.8,28.0,29.92,North,0,0.0,0.0,65,0.00,,,0.00,WUHU21623XXSP,2013-02-04 22:15:00,
2013-02-04 16:20:00,38.5,28.0,29.93,North,0,0.0,0.0,65,0.00,,,0.00,WUHU21623XXSP,2013-02-04 22:20:00,
2013-02-04 16:25:00,38.3,27.9,29.93,North,0,0.0,0.0,66,0.00,,,0.00,WUHU21623XXSP,2013-02-04 22:25:00,
2013-02-04 16:30:00,37.9,27.6,29.93,North,0,0.0,0.0,66,0.00,,,0.00,WUHU21623XXSP,2013-02-04 22:30:00,
2013-02-04 16:35:00,37.4,27.4,29.94,North,0,0.0,0.0,66,0.00,,,0.00,WUHU21623XXSP,2013-02-04 22:35:00,
2013-02-04 16:40:00,37.2,27.3,29.94,North,0,0.0,0.0,67,0.00,,,0.00,WUHU21623XXSP,2013-02-04 22:40:00,
2013-02-04 16:45:00,36.7,27.1,29.94,North,0,0.0,0.0,67,0.00,,,0.00,WUHU21623XXSP,2013-02-04 22:45:00,
2013-02-04 16:50:00,36.3,26.4,29.94,North,0,0.0,0.0,67,0.00,,,0.00,WUHU21623XXSP,2013-02-04 22:50:00,
2013-02-04 16:55:00,36.0,26.0,29.94,North,0,0.0,0.0,67,0.00,,,0.00,WUHU21623XXSP,2013-02-04 22:55:00,
2013-02-04 17:01:00,35.4,25.9,29.95,North,0,0.0,0.0,68,0.00,,,0.00,WUHU21623XXSP,2013-02-04 23:01:00,
2013-02-04 17:06:00,35.2,25.7,29.94,North,0,0.0,0.0,68,0.00,,,0.00,WUHU21623XXSP,2013-02-04 23:06:00,
2013-02-04 17:11:00,34.9,25.3,29.94,North,0,0.0,0.0,68,0.00,,,0.00,WUHU21623XXSP,2013-02-04 23:11:00,
2013-02-04 17:16:00,34.3,25.5,29.94,North,0,0.0,0.0,69,0.00,,,0.00,WUHU21623XXSP,2013-02-04 23:16:00,
2013-02-04 17:21:00,34.3,25.2,29.94,North,0,0.0,0.0,69,0.00,,,0.00,WUHU21623XXSP,2013-02-04 23:21:00,
2013-02-04 17:26:00,34.0,24.8,29.95,North,0,0.0,0.0,69,0.00,,,0.00,WUHU21623XXSP,2013-02-04 23:26:00,
2013-02-04 17:31:00,33.6,24.8,29.95,North,0,0.0,0.0,70,0.00,,,0.00,WUHU21623XXSP,2013-02-04 23:31:00,
2013-02-04 17:36:00,33.4,24.7,29.95,North,0,0.0,0.0,70,0.00,,,0.00,WUHU21623XXSP,2013-02-04 23:36:00,
2013-02-04 17:41:00,33.1,24.3,29.95,North,0,0.0,0.0,70,0.00,,,0.00,WUHU21623XXSP,2013-02-04 23:41:00,
2013-02-04 17:46:00,32.7,24.5,29.94,North,0,0.0,0.0,71,0.00,,,0.00,WUHU21623XXSP,2013-02-04 23:46:00,
2013-02-04 17:51:00,32.7,24.3,29.94,North,0,0.0,0.0,71,0.00,,,0.00,WUHU21623XXSP,2013-02-04 23:51:00,
2013-02-04 17:56:00,32.4,24.0,29.94,North,0,0.0,0.0,71,0.00,,,0.00,WUHU21623XXSP,2013-02-04 23:56:00,
2013-02-04 18:01:00,32.2,24.2,29.94,North,0,0.0,0.0,72,0.00,,,0.00,WUHU21623XXSP,2013-02-05 00:01:00,
2013-02-04 18:06:00,31.8,23.8,29.94,North,0,0.0,0.0,72,0.00,,,0.00,WUHU21623XXSP,2013-02-05 00:06:00,
2013-02-04 18:11:00,31.6,23.8,29.95,North,0,0.0,0.0,72,0.00,,,0.00,WUHU21623XXSP,2013-02-05 00:11:00,
2013-02-04 18:16:00,31.6,24.0,29.95,North,0,0.0,0.0,73,0.00,,,0.00,WUHU21623XXSP,2013-02-05 00:16:00,
2013-02-04 18:21:00,31.3,23.6,29.96,North,0,0.0,0.0,73,0.00,,,0.00,WUHU21623XXSP,2013-02-05 00:21:00,
2013-02-04 18:26:00,31.1,23.4,29.96,North,0,0.0,0.0,73,0.00,,,0.00,WUHU21623XXSP,2013-02-05 00:26:00,
2013-02-04 18:31:00,30.7,23.1,29.97,North,0,0.0,0.0,73,0.00,,,0.00,WUHU21623XXSP,2013-02-05 00:31:00,
2013-02-04 18:36:00,30.6,23.1,29.97,North,0,0.0,0.0,73,0.00,,,0.00,WUHU21623XXSP,2013-02-05 00:36:00,
2013-02-04 18:41:00,30.2,22.9,29.97,North,0,0.0,0.0,74,0.00,,,0.00,WUHU21623XXSP,2013-02-05 00:41:00,
2013-02-04 18:46:00,30.0,22.9,29.97,North,0,0.0,0.0,74,0.00,,,0.00,WUHU21623XXSP,2013-02-05 00:46:00,
2013-02-04 18:51:00,30.0,22.7,29.98,North,0,0.0,0.0,74,0.00,,,0.00,WUHU21623XXSP,2013-02-05 00:51:00,
2013-02-04 18:56:00,29.7,22.7,29.97,North,0,0.0,0.0,75,0.00,,,0.00,WUHU21623XXSP,2013-02-05 00:56:00,
2013-02-04 19:01:00,29.5,22.5,29.97,North,0,0.0,0.0,75,0.00,,,0.00,WUHU21623XXSP,2013-02-05 01:01:00,
2013-02-04 19:06:00,29.3,22.3,29.97,North,0,0.0,0.0,75,0.00,,,0.00,WUHU21623XXSP,2013-02-05 01:06:00,
2013-02-04 19:11:00,29.1,22.2,29.97,North,0,0.0,0.0,75,0.00,,,0.00,WUHU21623XXSP,2013-02-05 01:11:00,
2013-02-04 19:16:00,28.9,22.0,29.97,North,0,0.0,0.0,75,0.00,,,0.00,WUHU21623XXSP,2013-02-05 01:16:00,
2013-02-04 19:21:00,28.9,22.0,29.98,North,0,0.0,0.0,75,0.00,,,0.00,WUHU21623XXSP,2013-02-05 01:21:00,
2013-02-04 19:26:00,28.6,21.9,29.98,North,0,0.0,0.0,76,0.00,,,0.00,WUHU21623XXSP,2013-02-05 01:26:00,
2013-02-04 19:31:00,28.6,21.9,29.99,North,0,0.0,0.0,76,0.00,,,0.00,WUHU21623XXSP,2013-02-05 01:31:00,
2013-02-04 19:36:00,28.6,22.2,29.99,North,0,0.0,0.0,77,0.00,,,0.00,WUHU21623XXSP,2013-02-05 01:36:00,
2013-02-04 19:41:00,28.6,22.2,29.99,North,0,0.0,0.0,77,0.00,,,0.00,WUHU21623XXSP,2013-02-05 01:41:00,
2013-02-04 19:46:00,28.6,22.2,30.00,North,0,0.0,0.0,77,0.00,,,0.00,WUHU21623XXSP,2013-02-05 01:46:00,
2013-02-04 19:51:00,28.2,21.9,30.00,North,0,0.0,0.0,77,0.00,,,0.00,WUHU21623XXSP,2013-02-05 01:51:00,
2013-02-04 19:56:00,28.2,21.9,30.00,North,0,0.0,0.0,77,0.00,,,0.00,WUHU21623XXSP,2013-02-05 01:56:00,
2013-02-04 20:01:00,28.2,21.9,30.00,North,0,0.0,0.0,77,0.00,,,0.00,WUHU21623XXSP,2013-02-05 02:01:00,
2013-02-04 20:06:00,28.2,21.9,30.00,North,0,0.0,0.0,77,0.00,,,0.00,WUHU21623XXSP,2013-02-05 02:06:00,
2013-02-04 20:11:00,28.2,21.9,30.00,North,0,0.0,0.0,77,0.00,,,0.00,WUHU21623XXSP,2013-02-05 02:11:00,
2013-02-04 20:16:00,28.2,21.9,30.00,North,0,0.0,0.0,77,0.00,,,0.00,WUHU21623XXSP,2013-02-05 02:16:00,
2013-02-04 20:21:00,28.2,22.2,30.00,North,0,0.0,0.0,78,0.00,,,0.00,WUHU21623XXSP,2013-02-05 02:21:00,
2013-02-04 20:26:00,28.2,22.2,30.00,North,0,0.0,0.0,78,0.00,,,0.00,WUHU21623XXSP,2013-02-05 02:26:00,
2013-02-04 20:31:00,28.2,22.2,30.00,North,0,0.0,0.0,78,0.00,,,0.00,WUHU21623XXSP,2013-02-05 02:31:00,
2013-02-04 20:36:00,28.0,22.0,30.00,North,0,0.0,0.0,78,0.00,,,0.00,WUHU21623XXSP,2013-02-05 02:36:00,
2013-02-04 20:41:00,28.0,22.0,30.00,North,0,0.0,0.0,78,0.00,,,0.00,WUHU21623XXSP,2013-02-05 02:41:00,
2013-02-04 20:46:00,28.0,22.0,30.00,North,0,0.0,0.0,78,0.00,,,0.00,WUHU21623XXSP,2013-02-05 02:46:00,
2013-02-04 20:51:00,28.0,22.0,30.00,North,0,0.0,0.0,78,0.00,,,0.00,WUHU21623XXSP,2013-02-05 02:51:00,
2013-02-04 20:56:00,28.0,22.0,30.00,North,0,0.0,0.0,78,0.00,,,0.00,WUHU21623XXSP,2013-02-05 02:56:00,
2013-02-04 21:01:00,28.0,22.0,30.00,North,0,0.0,0.0,78,0.00,,,0.00,WUHU21623XXSP,2013-02-05 03:01:00,
2013-02-04 21:06:00,28.0,22.0,30.00,North,0,0.0,0.0,78,0.00,,,0.00,WUHU21623XXSP,2013-02-05 03:06:00,
2013-02-04 21:11:00,28.0,22.0,30.00,North,0,0.0,0.0,78,0.00,,,0.00,WUHU21623XXSP,2013-02-05 03:11:00,
2013-02-04 21:16:00,28.0,22.0,30.00,North,0,0.0,0.0,78,0.00,,,0.00,WUHU21623XXSP,2013-02-05 03:16:00,
2013-02-04 21:21:00,28.0,22.0,29.99,North,0,0.0,0.0,78,0.00,,,0.00,WUHU21623XXSP,2013-02-05 03:21:00,
2013-02-04 21:26:00,27.7,21.8,29.99,North,0,0.0,0.0,78,0.00,,,0.00,WUHU21623XXSP,2013-02-05 03:26:00,
2013-02-04 21:31:00,27.7,21.7,29.99,North,0,0.0,0.0,78,0.00,,,0.00,WUHU21623XXSP,2013-02-05 03:31:00,
2013-02-04 21:36:00,27.5,21.7,30.00,North,0,0.0,0.0,78,0.00,,,0.00,WUHU21623XXSP,2013-02-05 03:36:00,
2013-02-04 21:41:00,27.3,21.3,30.00,North,0,0.0,0.0,78,0.00,,,0.00,WUHU21623XXSP,2013-02-05 03:41:00,
2013-02-04 21:46:00,27.1,21.1,30.00,North,0,0.0,0.0,78,0.00,,,0.00,WUHU21623XXSP,2013-02-05 03:46:00,
2013-02-04 21:51:00,27.1,21.1,30.01,North,0,0.0,0.0,78,0.00,,,0.00,WUHU21623XXSP,2013-02-05 03:51:00,
2013-02-04 21:56:00,27.0,20.9,30.00,North,0,0.0,0.0,78,0.00,,,0.00,WUHU21623XXSP,2013-02-05 03:56:00,
2013-02-04 22:01:00,26.8,20.9,30.00,North,0,0.0,0.0,78,0.00,,,0.00,WUHU21623XXSP,2013-02-05 04:01:00,
2013-02-04 22:06:00,26.8,21.1,30.01,North,0,0.0,0.0,79,0.00,,,0.00,WUHU21623XXSP,2013-02-05 04:06:00,
2013-02-04 22:11:00,26.8,21.1,30.01,North,0,0.0,0.0,79,0.00,,,0.00,WUHU21623XXSP,2013-02-05 04:11:00,
2013-02-04 22:16:00,26.8,21.1,30.01,North,0,0.0,0.0,79,0.00,,,0.00,WUHU21623XXSP,2013-02-05 04:16:00,
2013-02-04 22:21:00,27.0,21.3,30.00,North,0,0.0,0.0,79,0.00,,,0.00,WUHU21623XXSP,2013-02-05 04:21:00,
2013-02-04 22:26:00,27.0,21.3,30.00,North,0,0.0,0.0,79,0.00,,,0.00,WUHU21623XXSP,2013-02-05 04:26:00,
2013-02-04 22:31:00,27.0,21.3,30.00,North,0,0.0,0.0,79,0.00,,,0.00,WUHU21623XXSP,2013-02-05 04:31:00,
2013-02-04 22:36:00,27.0,21.3,30.00,North,0,0.0,0.0,80,0.00,,,0.00,WUHU21623XXSP,2013-02-05 04:36:00,
2013-02-04 22:41:00,27.0,21.6,30.00,North,0,0.0,0.0,80,0.00,,,0.00,WUHU21623XXSP,2013-02-05 04:41:00,
2013-02-04 22:46:00,26.8,21.6,30.00,North,0,0.0,0.0,80,0.00,,,0.00,WUHU21623XXSP,2013-02-05 04:46:00,
2013-02-04 22:51:00,26.8,21.4,30.00,North,0,0.0,0.0,80,0.00,,,0.00,WUHU21623XXSP,2013-02-05 04:51:00,
2013-02-04 22:56:00,26.8,21.4,30.00,North,0,0.0,0.0,80,0.00,,,0.00,WUHU21623XXSP,2013-02-05 04:56:00,
2013-02-04 23:01:00,26.6,21.2,30.00,North,0,0.0,0.0,80,0.00,,,0.00,WUHU21623XXSP,2013-02-05 05:01:00,
2013-02-04 23:06:00,26.4,21.0,30.00,North,0,0.0,0.0,80,0.00,,,0.00,WUHU21623XXSP,2013-02-05 05:06:00,
2013-02-04 23:09:00,26.4,21.0,30.00,North,0,0.0,0.0,80,0.00,,,0.00,WUHU21623XXSP,2013-02-05 05:09:00,
2013-02-04 23:11:00,26.4,21.0,29.99,North,0,0.0,0.0,80,0.00,,,0.00,WUHU21623XXSP,2013-02-05 05:11:00,
2013-02-04 23:16:00,26.2,20.9,29.99,North,0,0.0,0.0,80,0.00,,,0.00,WUHU21623XXSP,2013-02-05 05:16:00,
2013-02-04 23:21:00,26.1,20.7,29.99,North,0,0.0,0.0,80,0.00,,,0.00,WUHU21623XXSP,2013-02-05 05:21:00,
2013-02-04 23:26:00,25.9,20.6,29.99,North,0,0.0,0.0,80,0.00,,,0.00,WUHU21623XXSP,2013-02-05 05:26:00,
2013-02-04 23:31:00,25.9,20.6,29.99,North,0,0.0,0.0,80,0.00,,,0.00,WUHU21623XXSP,2013-02-05 05:31:00,
2013-02-04 23:36:00,25.5,20.2,30.00,North,0,0.0,0.0,80,0.00,,,0.00,WUHU21623XXSP,2013-02-05 05:36:00,
2013-02-04 23:41:00,25.5,20.2,30.00,North,0,0.0,0.0,80,0.00,,,0.00,WUHU21623XXSP,2013-02-05 05:41:00,
2013-02-04 23:46:00,25.5,20.2,30.00,North,0,0.0,0.0,80,0.00,,,0.00,WUHU21623XXSP,2013-02-05 05:46:00,
2013-02-04 23:51:00,25.3,20.1,30.00,North,0,0.0,0.0,80,0.00,,,0.00,WUHU21623XXSP,2013-02-05 05:51:00,
2013-02-04 23:56:00,25.3,20.1,29.99,North,0,0.0,0.0,80,0.00,,,0.00,WUHU21623XXSP,2013-02-05 05:56:00,